sensor_id;sensor_type;location;lat;lon;timestamp;temperature;humidity
7461;DHT22;6757;52.258;12.840;2023-04-06T00:00:42;-2.00;99.90
7461;DHT22;6757;52.258;12.840;2023-04-06T00:03:08;-2.10;99.90
7461;DHT22;6757;52.258;12.840;2023-04-06T00:05:37;-2.10;99.90
7461;DHT22;6757;52.258;12.840;2023-04-06T00:08:05;-2.10;99.90
7461;DHT22;6757;52.258;12.840;2023-04-06T00:10:31;-2.10;99.90
7461;DHT22;6757;52.258;12.840;2023-04-06T00:12:59;-2.20;99.90
7461;DHT22;6757;52.258;12.840;2023-04-06T00:15:26;-2.20;99.90
7461;DHT22;6757;52.258;12.840;2023-04-06T00:17:55;-2.20;99.90
7461;DHT22;6757;52.258;12.840;2023-04-06T00:20:22;-2.20;99.90
7461;DHT22;6757;52.258;12.840;2023-04-06T00:22:49;-2.20;99.90
7461;DHT22;6757;52.258;12.840;2023-04-06T00:25:16;-2.30;99.90
7461;DHT22;6757;52.258;12.840;2023-04-06T00:27:43;-2.30;99.90
7461;DHT22;6757;52.258;12.840;2023-04-06T00:30:10;-2.30;99.90
7461;DHT22;6757;52.258;12.840;2023-04-06T00:32:37;-2.40;99.90
7461;DHT22;6757;52.258;12.840;2023-04-06T00:35:06;-2.40;99.90
7461;DHT22;6757;52.258;12.840;2023-04-06T00:37:33;-2.40;99.90
7461;DHT22;6757;52.258;12.840;2023-04-06T00:40:00;-2.40;99.90
7461;DHT22;6757;52.258;12.840;2023-04-06T00:42:28;-2.40;99.90
7461;DHT22;6757;52.258;12.840;2023-04-06T00:44:56;-2.40;99.90
7461;DHT22;6757;52.258;12.840;2023-04-06T00:47:26;-2.50;99.90
7461;DHT22;6757;52.258;12.840;2023-04-06T00:49:54;-2.50;99.90
7461;DHT22;6757;52.258;12.840;2023-04-06T00:52:22;-2.50;99.90
7461;DHT22;6757;52.258;12.840;2023-04-06T00:54:50;-2.50;99.90
7461;DHT22;6757;52.258;12.840;2023-04-06T00:57:17;-2.50;99.90
7461;DHT22;6757;52.258;12.840;2023-04-06T00:59:44;-2.50;99.90
7461;DHT22;6757;52.258;12.840;2023-04-06T01:02:11;-2.50;99.90
7461;DHT22;6757;52.258;12.840;2023-04-06T01:04:39;-2.50;99.90
7461;DHT22;6757;52.258;12.840;2023-04-06T01:07:06;-2.60;99.90
7461;DHT22;6757;52.258;12.840;2023-04-06T01:09:34;-2.60;99.90
7461;DHT22;6757;52.258;12.840;2023-04-06T01:12:01;-2.60;99.90
7461;DHT22;6757;52.258;12.840;2023-04-06T01:14:29;-2.60;99.90
7461;DHT22;6757;52.258;12.840;2023-04-06T01:16:57;-2.60;99.90
7461;DHT22;6757;52.258;12.840;2023-04-06T01:19:25;-2.70;99.90
7461;DHT22;6757;52.258;12.840;2023-04-06T01:21:52;-2.70;99.90
7461;DHT22;6757;52.258;12.840;2023-04-06T01:24:21;-2.70;99.90
7461;DHT22;6757;52.258;12.840;2023-04-06T01:26:48;-2.70;99.90
7461;DHT22;6757;52.258;12.840;2023-04-06T01:29:15;-2.70;99.90
7461;DHT22;6757;52.258;12.840;2023-04-06T01:31:42;-2.70;99.90
7461;DHT22;6757;52.258;12.840;2023-04-06T01:34:09;-2.80;99.90
7461;DHT22;6757;52.258;12.840;2023-04-06T01:36:36;-2.80;99.90
7461;DHT22;6757;52.258;12.840;2023-04-06T01:39:03;-2.80;99.90
7461;DHT22;6757;52.258;12.840;2023-04-06T01:41:31;-2.80;99.90
7461;DHT22;6757;52.258;12.840;2023-04-06T01:43:58;-2.80;99.90
7461;DHT22;6757;52.258;12.840;2023-04-06T01:46:25;-2.80;99.90
7461;DHT22;6757;52.258;12.840;2023-04-06T01:48:52;-2.80;99.90
7461;DHT22;6757;52.258;12.840;2023-04-06T01:51:19;-2.90;99.90
7461;DHT22;6757;52.258;12.840;2023-04-06T01:53:45;-2.90;99.90
7461;DHT22;6757;52.258;12.840;2023-04-06T01:56:13;-2.90;99.90
7461;DHT22;6757;52.258;12.840;2023-04-06T01:58:42;-2.90;99.90
7461;DHT22;6757;52.258;12.840;2023-04-06T02:01:08;-2.90;99.90
7461;DHT22;6757;52.258;12.840;2023-04-06T02:03:35;-3.00;99.90
7461;DHT22;6757;52.258;12.840;2023-04-06T02:06:02;-3.00;99.90
7461;DHT22;6757;52.258;12.840;2023-04-06T02:08:30;-3.00;99.90
7461;DHT22;6757;52.258;12.840;2023-04-06T02:10:56;-3.00;99.90
7461;DHT22;6757;52.258;12.840;2023-04-06T02:13:23;-3.00;99.90
7461;DHT22;6757;52.258;12.840;2023-04-06T02:15:51;-3.00;99.90
7461;DHT22;6757;52.258;12.840;2023-04-06T02:18:18;-3.10;99.90
7461;DHT22;6757;52.258;12.840;2023-04-06T02:20:45;-3.10;99.90
7461;DHT22;6757;52.258;12.840;2023-04-06T02:23:12;-3.10;99.90
7461;DHT22;6757;52.258;12.840;2023-04-06T02:25:39;-3.10;99.90
7461;DHT22;6757;52.258;12.840;2023-04-06T02:28:06;-3.10;99.90
7461;DHT22;6757;52.258;12.840;2023-04-06T02:30:34;-3.20;99.90
7461;DHT22;6757;52.258;12.840;2023-04-06T02:33:02;-3.20;99.90
7461;DHT22;6757;52.258;12.840;2023-04-06T02:35:30;-3.20;99.90
7461;DHT22;6757;52.258;12.840;2023-04-06T02:37:57;-3.20;99.90
7461;DHT22;6757;52.258;12.840;2023-04-06T02:40:24;-3.30;99.90
7461;DHT22;6757;52.258;12.840;2023-04-06T02:42:51;-3.30;99.90
7461;DHT22;6757;52.258;12.840;2023-04-06T02:45:18;-3.30;99.90
7461;DHT22;6757;52.258;12.840;2023-04-06T02:47:45;-3.30;99.90
7461;DHT22;6757;52.258;12.840;2023-04-06T02:50:13;-3.30;99.90
7461;DHT22;6757;52.258;12.840;2023-04-06T02:52:41;-3.40;99.90
7461;DHT22;6757;52.258;12.840;2023-04-06T02:55:08;-3.40;99.90
7461;DHT22;6757;52.258;12.840;2023-04-06T02:57:35;-3.40;99.90
7461;DHT22;6757;52.258;12.840;2023-04-06T03:00:02;-3.40;99.90
7461;DHT22;6757;52.258;12.840;2023-04-06T03:02:30;-3.40;99.90
7461;DHT22;6757;52.258;12.840;2023-04-06T03:04:57;-3.50;99.90
7461;DHT22;6757;52.258;12.840;2023-04-06T03:07:25;-3.50;99.90
7461;DHT22;6757;52.258;12.840;2023-04-06T03:09:52;-3.50;99.90
7461;DHT22;6757;52.258;12.840;2023-04-06T03:12:19;-3.50;99.90
7461;DHT22;6757;52.258;12.840;2023-04-06T03:14:45;-3.50;99.90
7461;DHT22;6757;52.258;12.840;2023-04-06T03:17:12;-3.50;99.90
7461;DHT22;6757;52.258;12.840;2023-04-06T03:19:40;-3.60;99.90
7461;DHT22;6757;52.258;12.840;2023-04-06T03:22:06;-3.60;99.90
7461;DHT22;6757;52.258;12.840;2023-04-06T03:24:35;-3.60;99.90
7461;DHT22;6757;52.258;12.840;2023-04-06T03:27:02;-3.60;99.90
7461;DHT22;6757;52.258;12.840;2023-04-06T03:29:29;-3.60;99.90
7461;DHT22;6757;52.258;12.840;2023-04-06T03:31:56;-3.60;99.90
7461;DHT22;6757;52.258;12.840;2023-04-06T03:34:23;-3.70;99.90
7461;DHT22;6757;52.258;12.840;2023-04-06T03:36:52;-3.60;99.90
7461;DHT22;6757;52.258;12.840;2023-04-06T03:39:20;-3.70;99.90
7461;DHT22;6757;52.258;12.840;2023-04-06T03:41:48;-3.70;99.90
7461;DHT22;6757;52.258;12.840;2023-04-06T03:44:15;-3.70;99.90
7461;DHT22;6757;52.258;12.840;2023-04-06T03:46:43;-3.70;99.90
7461;DHT22;6757;52.258;12.840;2023-04-06T03:49:10;-3.70;99.90
7461;DHT22;6757;52.258;12.840;2023-04-06T03:51:37;-3.70;99.90
7461;DHT22;6757;52.258;12.840;2023-04-06T03:54:04;-3.70;99.90
7461;DHT22;6757;52.258;12.840;2023-04-06T03:56:31;-3.70;99.90
7461;DHT22;6757;52.258;12.840;2023-04-06T03:59:00;-3.80;99.90
7461;DHT22;6757;52.258;12.840;2023-04-06T04:01:27;-3.80;99.90
7461;DHT22;6757;52.258;12.840;2023-04-06T04:03:55;-3.80;99.90
7461;DHT22;6757;52.258;12.840;2023-04-06T04:06:22;-3.80;99.90
7461;DHT22;6757;52.258;12.840;2023-04-06T04:08:49;-3.80;99.90
7461;DHT22;6757;52.258;12.840;2023-04-06T04:11:16;-3.40;99.90
7461;DHT22;6757;52.258;12.840;2023-04-06T04:13:46;-3.90;99.90
7461;DHT22;6757;52.258;12.840;2023-04-06T04:16:14;-3.60;99.90
7461;DHT22;6757;52.258;12.840;2023-04-06T04:18:41;-3.90;99.90
7461;DHT22;6757;52.258;12.840;2023-04-06T04:21:09;-3.90;99.90
7461;DHT22;6757;52.258;12.840;2023-04-06T04:23:35;-4.00;99.90
7461;DHT22;6757;52.258;12.840;2023-04-06T04:26:03;-4.00;99.90
7461;DHT22;6757;52.258;12.840;2023-04-06T04:28:30;-4.00;99.90
7461;DHT22;6757;52.258;12.840;2023-04-06T04:30:57;-4.00;99.90
7461;DHT22;6757;52.258;12.840;2023-04-06T04:33:25;-4.00;99.90
7461;DHT22;6757;52.258;12.840;2023-04-06T04:35:52;-4.00;99.90
7461;DHT22;6757;52.258;12.840;2023-04-06T04:38:18;-4.10;99.90
7461;DHT22;6757;52.258;12.840;2023-04-06T04:40:46;-4.00;99.90
7461;DHT22;6757;52.258;12.840;2023-04-06T04:43:12;-4.00;99.90
7461;DHT22;6757;52.258;12.840;2023-04-06T04:45:40;-4.10;99.90
7461;DHT22;6757;52.258;12.840;2023-04-06T04:48:06;-4.00;99.90
7461;DHT22;6757;52.258;12.840;2023-04-06T04:50:35;-4.10;99.90
7461;DHT22;6757;52.258;12.840;2023-04-06T04:53:02;-4.10;99.90
7461;DHT22;6757;52.258;12.840;2023-04-06T04:55:30;-4.10;99.90
7461;DHT22;6757;52.258;12.840;2023-04-06T04:57:57;-4.00;99.90
7461;DHT22;6757;52.258;12.840;2023-04-06T05:00:24;-4.10;99.90
7461;DHT22;6757;52.258;12.840;2023-04-06T05:02:51;-4.00;99.90
7461;DHT22;6757;52.258;12.840;2023-04-06T05:05:18;-4.00;99.90
7461;DHT22;6757;52.258;12.840;2023-04-06T05:07:46;-4.00;99.90
7461;DHT22;6757;52.258;12.840;2023-04-06T05:10:13;-4.00;99.90
7461;DHT22;6757;52.258;12.840;2023-04-06T05:12:40;-4.00;99.90
7461;DHT22;6757;52.258;12.840;2023-04-06T05:15:08;-4.00;99.90
7461;DHT22;6757;52.258;12.840;2023-04-06T05:17:35;-3.90;99.90
7461;DHT22;6757;52.258;12.840;2023-04-06T05:20:03;-3.90;99.90
7461;DHT22;6757;52.258;12.840;2023-04-06T05:22:30;-3.90;99.90
7461;DHT22;6757;52.258;12.840;2023-04-06T05:24:58;-3.80;99.90
7461;DHT22;6757;52.258;12.840;2023-04-06T05:27:25;-3.80;99.90
7461;DHT22;6757;52.258;12.840;2023-04-06T05:29:52;-3.80;99.90
7461;DHT22;6757;52.258;12.840;2023-04-06T05:32:19;-3.80;99.90
7461;DHT22;6757;52.258;12.840;2023-04-06T05:34:47;-3.70;99.90
7461;DHT22;6757;52.258;12.840;2023-04-06T05:37:15;-3.70;99.90
7461;DHT22;6757;52.258;12.840;2023-04-06T05:39:42;-3.70;99.90
7461;DHT22;6757;52.258;12.840;2023-04-06T05:42:10;-3.60;99.90
7461;DHT22;6757;52.258;12.840;2023-04-06T05:44:37;-3.60;99.90
7461;DHT22;6757;52.258;12.840;2023-04-06T05:47:04;-3.60;99.90
7461;DHT22;6757;52.258;12.840;2023-04-06T05:49:31;-3.50;99.90
7461;DHT22;6757;52.258;12.840;2023-04-06T05:51:58;-3.50;99.90
7461;DHT22;6757;52.258;12.840;2023-04-06T05:54:25;-3.40;99.90
7461;DHT22;6757;52.258;12.840;2023-04-06T05:56:52;-3.40;99.90
7461;DHT22;6757;52.258;12.840;2023-04-06T05:59:20;-3.30;99.90
7461;DHT22;6757;52.258;12.840;2023-04-06T06:01:49;-3.20;99.90
7461;DHT22;6757;52.258;12.840;2023-04-06T06:04:15;-3.10;99.90
7461;DHT22;6757;52.258;12.840;2023-04-06T06:06:42;-3.10;99.90
7461;DHT22;6757;52.258;12.840;2023-04-06T06:09:09;-3.00;99.90
7461;DHT22;6757;52.258;12.840;2023-04-06T06:11:36;-2.90;99.90
7461;DHT22;6757;52.258;12.840;2023-04-06T06:14:04;-2.80;99.90
7461;DHT22;6757;52.258;12.840;2023-04-06T06:16:32;-2.70;99.90
7461;DHT22;6757;52.258;12.840;2023-04-06T06:18:59;-2.60;99.90
7461;DHT22;6757;52.258;12.840;2023-04-06T06:21:26;-2.50;99.90
7461;DHT22;6757;52.258;12.840;2023-04-06T06:23:52;-2.40;99.90
7461;DHT22;6757;52.258;12.840;2023-04-06T06:26:20;-2.30;99.90
7461;DHT22;6757;52.258;12.840;2023-04-06T06:28:47;-2.20;99.90
7461;DHT22;6757;52.258;12.840;2023-04-06T06:31:14;-2.10;99.90
7461;DHT22;6757;52.258;12.840;2023-04-06T06:33:42;-2.00;99.90
7461;DHT22;6757;52.258;12.840;2023-04-06T06:36:09;-1.80;99.90
7461;DHT22;6757;52.258;12.840;2023-04-06T06:38:36;-1.60;99.90
7461;DHT22;6757;52.258;12.840;2023-04-06T06:41:04;-1.50;99.90
7461;DHT22;6757;52.258;12.840;2023-04-06T06:43:31;-1.30;99.90
7461;DHT22;6757;52.258;12.840;2023-04-06T06:45:57;-1.10;99.90
7461;DHT22;6757;52.258;12.840;2023-04-06T06:48:25;-0.90;99.90
7461;DHT22;6757;52.258;12.840;2023-04-06T06:50:53;-0.80;99.90
7461;DHT22;6757;52.258;12.840;2023-04-06T06:53:20;-0.60;99.90
7461;DHT22;6757;52.258;12.840;2023-04-06T06:55:47;-0.50;99.90
7461;DHT22;6757;52.258;12.840;2023-04-06T06:58:15;-0.30;99.90
7461;DHT22;6757;52.258;12.840;2023-04-06T07:00:45;-0.10;99.90
7461;DHT22;6757;52.258;12.840;2023-04-06T07:03:12;0.10;99.90
7461;DHT22;6757;52.258;12.840;2023-04-06T07:05:39;0.30;99.90
7461;DHT22;6757;52.258;12.840;2023-04-06T07:08:16;0.40;99.90
7461;DHT22;6757;52.258;12.840;2023-04-06T07:10:42;0.70;99.90
7461;DHT22;6757;52.258;12.840;2023-04-06T07:13:09;0.90;99.90
7461;DHT22;6757;52.258;12.840;2023-04-06T07:15:36;1.10;99.90
7461;DHT22;6757;52.258;12.840;2023-04-06T07:18:03;1.30;99.90
7461;DHT22;6757;52.258;12.840;2023-04-06T07:20:30;1.50;99.90
7461;DHT22;6757;52.258;12.840;2023-04-06T07:22:57;1.70;99.90
7461;DHT22;6757;52.258;12.840;2023-04-06T07:25:25;1.90;99.90
7461;DHT22;6757;52.258;12.840;2023-04-06T07:27:52;2.10;99.90
7461;DHT22;6757;52.258;12.840;2023-04-06T07:30:19;2.30;99.90
7461;DHT22;6757;52.258;12.840;2023-04-06T07:32:47;2.50;99.90
7461;DHT22;6757;52.258;12.840;2023-04-06T07:35:14;2.70;99.90
7461;DHT22;6757;52.258;12.840;2023-04-06T07:37:41;2.90;99.90
7461;DHT22;6757;52.258;12.840;2023-04-06T07:40:09;3.10;99.90
7461;DHT22;6757;52.258;12.840;2023-04-06T07:42:37;3.30;99.90
7461;DHT22;6757;52.258;12.840;2023-04-06T07:45:05;3.40;99.90
7461;DHT22;6757;52.258;12.840;2023-04-06T07:47:33;3.60;99.90
7461;DHT22;6757;52.258;12.840;2023-04-06T07:50:00;3.70;99.90
7461;DHT22;6757;52.258;12.840;2023-04-06T07:52:27;3.90;99.90
7461;DHT22;6757;52.258;12.840;2023-04-06T07:54:54;4.10;99.90
7461;DHT22;6757;52.258;12.840;2023-04-06T07:57:20;4.20;99.90
7461;DHT22;6757;52.258;12.840;2023-04-06T07:59:49;4.30;99.90
7461;DHT22;6757;52.258;12.840;2023-04-06T08:02:15;4.50;99.90
7461;DHT22;6757;52.258;12.840;2023-04-06T08:04:43;4.70;99.90
7461;DHT22;6757;52.258;12.840;2023-04-06T08:07:10;4.80;99.90
7461;DHT22;6757;52.258;12.840;2023-04-06T08:09:37;5.00;99.90
7461;DHT22;6757;52.258;12.840;2023-04-06T08:12:04;5.00;99.90
7461;DHT22;6757;52.258;12.840;2023-04-06T08:14:31;5.20;99.90
7461;DHT22;6757;52.258;12.840;2023-04-06T08:16:59;5.30;99.90
7461;DHT22;6757;52.258;12.840;2023-04-06T08:19:26;5.40;99.90
7461;DHT22;6757;52.258;12.840;2023-04-06T08:21:53;5.50;99.90
7461;DHT22;6757;52.258;12.840;2023-04-06T08:24:20;5.60;99.90
7461;DHT22;6757;52.258;12.840;2023-04-06T08:26:46;5.70;99.90
7461;DHT22;6757;52.258;12.840;2023-04-06T08:29:14;5.80;99.90
7461;DHT22;6757;52.258;12.840;2023-04-06T08:31:41;5.80;99.90
7461;DHT22;6757;52.258;12.840;2023-04-06T08:34:09;5.90;99.90
7461;DHT22;6757;52.258;12.840;2023-04-06T08:36:36;6.00;99.90
7461;DHT22;6757;52.258;12.840;2023-04-06T08:39:03;6.10;99.90
7461;DHT22;6757;52.258;12.840;2023-04-06T08:41:30;6.20;99.90
7461;DHT22;6757;52.258;12.840;2023-04-06T08:43:59;6.30;99.90
7461;DHT22;6757;52.258;12.840;2023-04-06T08:46:28;6.40;99.90
7461;DHT22;6757;52.258;12.840;2023-04-06T08:48:56;6.50;99.90
7461;DHT22;6757;52.258;12.840;2023-04-06T08:51:25;6.70;99.90
7461;DHT22;6757;52.258;12.840;2023-04-06T08:53:54;6.80;99.90
7461;DHT22;6757;52.258;12.840;2023-04-06T08:56:22;7.00;99.90
7461;DHT22;6757;52.258;12.840;2023-04-06T08:58:50;7.20;99.90
7461;DHT22;6757;52.258;12.840;2023-04-06T09:01:20;7.40;99.90
7461;DHT22;6757;52.258;12.840;2023-04-06T09:03:49;7.60;99.90
7461;DHT22;6757;52.258;12.840;2023-04-06T09:06:16;7.70;99.90
7461;DHT22;6757;52.258;12.840;2023-04-06T09:08:45;7.80;99.90
7461;DHT22;6757;52.258;12.840;2023-04-06T09:11:12;7.90;99.90
7461;DHT22;6757;52.258;12.840;2023-04-06T09:13:47;7.90;99.90
7461;DHT22;6757;52.258;12.840;2023-04-06T09:16:14;7.90;99.90
7461;DHT22;6757;52.258;12.840;2023-04-06T09:18:41;7.90;99.90
7461;DHT22;6757;52.258;12.840;2023-04-06T09:21:09;7.90;99.90
7461;DHT22;6757;52.258;12.840;2023-04-06T09:23:36;7.90;99.90
7461;DHT22;6757;52.258;12.840;2023-04-06T09:26:07;7.80;99.90
7461;DHT22;6757;52.258;12.840;2023-04-06T09:28:43;7.90;99.90
7461;DHT22;6757;52.258;12.840;2023-04-06T09:31:12;7.90;99.90
7461;DHT22;6757;52.258;12.840;2023-04-06T09:33:40;7.90;99.90
7461;DHT22;6757;52.258;12.840;2023-04-06T09:36:09;8.00;99.90
7461;DHT22;6757;52.258;12.840;2023-04-06T09:38:37;8.00;99.90
7461;DHT22;6757;52.258;12.840;2023-04-06T09:41:06;8.10;99.90
7461;DHT22;6757;52.258;12.840;2023-04-06T09:43:32;8.10;99.90
7461;DHT22;6757;52.258;12.840;2023-04-06T09:46:01;8.20;99.90
7461;DHT22;6757;52.258;12.840;2023-04-06T09:48:31;8.20;99.90
7461;DHT22;6757;52.258;12.840;2023-04-06T09:51:02;8.30;99.90
7461;DHT22;6757;52.258;12.840;2023-04-06T09:53:31;8.30;99.90
7461;DHT22;6757;52.258;12.840;2023-04-06T09:56:03;8.40;99.90
7461;DHT22;6757;52.258;12.840;2023-04-06T09:58:34;8.40;99.90
7461;DHT22;6757;52.258;12.840;2023-04-06T10:01:07;8.50;99.60
7461;DHT22;6757;52.258;12.840;2023-04-06T10:03:42;8.50;98.70
7461;DHT22;6757;52.258;12.840;2023-04-06T10:06:14;8.60;96.60
7461;DHT22;6757;52.258;12.840;2023-04-06T10:08:43;8.60;95.30
7461;DHT22;6757;52.258;12.840;2023-04-06T10:11:13;8.60;94.40
7461;DHT22;6757;52.258;12.840;2023-04-06T10:13:41;8.70;94.40
7461;DHT22;6757;52.258;12.840;2023-04-06T10:16:09;8.70;94.80
7461;DHT22;6757;52.258;12.840;2023-04-06T10:18:39;8.80;94.90
7461;DHT22;6757;52.258;12.840;2023-04-06T10:21:11;8.90;94.60
7461;DHT22;6757;52.258;12.840;2023-04-06T10:23:43;8.90;93.60
7461;DHT22;6757;52.258;12.840;2023-04-06T10:26:15;9.00;92.90
7461;DHT22;6757;52.258;12.840;2023-04-06T10:28:44;9.00;92.50
7461;DHT22;6757;52.258;12.840;2023-04-06T10:31:12;9.10;92.40
7461;DHT22;6757;52.258;12.840;2023-04-06T10:33:40;9.20;91.70
7461;DHT22;6757;52.258;12.840;2023-04-06T10:36:11;9.30;91.30
7461;DHT22;6757;52.258;12.840;2023-04-06T10:38:39;9.40;90.70
7461;DHT22;6757;52.258;12.840;2023-04-06T10:41:07;9.50;90.00
7461;DHT22;6757;52.258;12.840;2023-04-06T10:43:38;9.50;89.20
7461;DHT22;6757;52.258;12.840;2023-04-06T10:46:07;9.60;89.20
7461;DHT22;6757;52.258;12.840;2023-04-06T10:48:38;9.70;89.30
7461;DHT22;6757;52.258;12.840;2023-04-06T10:51:11;9.70;89.40
7461;DHT22;6757;52.258;12.840;2023-04-06T10:53:41;9.80;89.70
7461;DHT22;6757;52.258;12.840;2023-04-06T10:56:10;9.90;89.90
7461;DHT22;6757;52.258;12.840;2023-04-06T10:58:44;10.00;89.10
7461;DHT22;6757;52.258;12.840;2023-04-06T11:01:12;10.00;86.40
7461;DHT22;6757;52.258;12.840;2023-04-06T11:03:44;10.10;85.80
7461;DHT22;6757;52.258;12.840;2023-04-06T11:06:11;10.10;85.40
7461;DHT22;6757;52.258;12.840;2023-04-06T11:08:44;10.20;84.70
7461;DHT22;6757;52.258;12.840;2023-04-06T11:11:12;10.20;84.30
7461;DHT22;6757;52.258;12.840;2023-04-06T11:13:44;10.30;83.70
7461;DHT22;6757;52.258;12.840;2023-04-06T11:16:13;10.30;83.20
7461;DHT22;6757;52.258;12.840;2023-04-06T11:18:55;10.30;82.70
7461;DHT22;6757;52.258;12.840;2023-04-06T11:21:40;10.40;81.50
7461;DHT22;6757;52.258;12.840;2023-04-06T11:24:09;10.40;81.60
7461;DHT22;6757;52.258;12.840;2023-04-06T11:26:38;10.40;81.80
7461;DHT22;6757;52.258;12.840;2023-04-06T11:29:08;10.40;82.10
7461;DHT22;6757;52.258;12.840;2023-04-06T11:31:42;10.50;82.40
7461;DHT22;6757;52.258;12.840;2023-04-06T11:34:10;10.70;82.90
7461;DHT22;6757;52.258;12.840;2023-04-06T11:36:41;10.80;81.70
7461;DHT22;6757;52.258;12.840;2023-04-06T11:39:08;10.80;80.30
7461;DHT22;6757;52.258;12.840;2023-04-06T11:41:36;10.90;79.10
7461;DHT22;6757;52.258;12.840;2023-04-06T11:44:03;10.90;79.00
7461;DHT22;6757;52.258;12.840;2023-04-06T11:46:32;10.80;78.20
7461;DHT22;6757;52.258;12.840;2023-04-06T11:48:59;10.70;77.50
7461;DHT22;6757;52.258;12.840;2023-04-06T11:51:27;10.70;77.70
7461;DHT22;6757;52.258;12.840;2023-04-06T11:53:54;10.70;78.10
7461;DHT22;6757;52.258;12.840;2023-04-06T11:56:25;10.90;78.40
7461;DHT22;6757;52.258;12.840;2023-04-06T11:58:54;11.00;77.20
7461;DHT22;6757;52.258;12.840;2023-04-06T12:01:22;11.30;75.10
7461;DHT22;6757;52.258;12.840;2023-04-06T12:03:51;11.40;73.60
7461;DHT22;6757;52.258;12.840;2023-04-06T12:06:18;11.70;74.00
7461;DHT22;6757;52.258;12.840;2023-04-06T12:08:45;11.80;73.40
7461;DHT22;6757;52.258;12.840;2023-04-06T12:11:12;12.00;73.50
7461;DHT22;6757;52.258;12.840;2023-04-06T12:13:39;12.20;73.80
7461;DHT22;6757;52.258;12.840;2023-04-06T12:16:06;12.40;73.80
7461;DHT22;6757;52.258;12.840;2023-04-06T12:18:33;12.50;73.40
7461;DHT22;6757;52.258;12.840;2023-04-06T12:21:01;12.50;73.00
7461;DHT22;6757;52.258;12.840;2023-04-06T12:23:28;12.40;72.90
7461;DHT22;6757;52.258;12.840;2023-04-06T12:25:55;12.30;73.00
7461;DHT22;6757;52.258;12.840;2023-04-06T12:28:22;12.30;73.10
7461;DHT22;6757;52.258;12.840;2023-04-06T12:30:52;12.30;72.90
7461;DHT22;6757;52.258;12.840;2023-04-06T12:33:20;12.20;71.60
7461;DHT22;6757;52.258;12.840;2023-04-06T12:35:47;12.10;71.60
7461;DHT22;6757;52.258;12.840;2023-04-06T12:38:15;12.10;71.70
7461;DHT22;6757;52.258;12.840;2023-04-06T12:40:42;12.00;71.90
7461;DHT22;6757;52.258;12.840;2023-04-06T12:43:09;11.90;72.10
7461;DHT22;6757;52.258;12.840;2023-04-06T12:45:36;11.90;72.20
7461;DHT22;6757;52.258;12.840;2023-04-06T12:48:03;12.00;72.50
7461;DHT22;6757;52.258;12.840;2023-04-06T12:50:30;12.00;72.50
7461;DHT22;6757;52.258;12.840;2023-04-06T12:52:56;12.10;71.60
7461;DHT22;6757;52.258;12.840;2023-04-06T12:55:25;12.20;70.30
7461;DHT22;6757;52.258;12.840;2023-04-06T12:57:51;12.40;70.20
7461;DHT22;6757;52.258;12.840;2023-04-06T13:00:19;12.50;70.00
7461;DHT22;6757;52.258;12.840;2023-04-06T13:02:47;12.50;69.70
7461;DHT22;6757;52.258;12.840;2023-04-06T13:05:14;12.60;69.60
7461;DHT22;6757;52.258;12.840;2023-04-06T13:07:44;12.60;69.60
7461;DHT22;6757;52.258;12.840;2023-04-06T13:10:12;12.70;69.70
7461;DHT22;6757;52.258;12.840;2023-04-06T13:12:40;12.80;69.80
7461;DHT22;6757;52.258;12.840;2023-04-06T13:15:08;12.90;69.80
7461;DHT22;6757;52.258;12.840;2023-04-06T13:17:35;13.10;69.70
7461;DHT22;6757;52.258;12.840;2023-04-06T13:20:02;13.20;69.60
7461;DHT22;6757;52.258;12.840;2023-04-06T13:22:30;13.30;69.10
7461;DHT22;6757;52.258;12.840;2023-04-06T13:24:57;13.40;68.80
7461;DHT22;6757;52.258;12.840;2023-04-06T13:27:24;13.60;68.30
7461;DHT22;6757;52.258;12.840;2023-04-06T13:29:52;13.60;67.00
7461;DHT22;6757;52.258;12.840;2023-04-06T13:32:19;13.90;66.40
7461;DHT22;6757;52.258;12.840;2023-04-06T13:34:46;14.20;63.70
7461;DHT22;6757;52.258;12.840;2023-04-06T13:37:14;14.50;63.00
7461;DHT22;6757;52.258;12.840;2023-04-06T13:39:41;14.90;63.10
7461;DHT22;6757;52.258;12.840;2023-04-06T13:42:08;15.60;62.90
7461;DHT22;6757;52.258;12.840;2023-04-06T13:44:35;16.20;61.60
7461;DHT22;6757;52.258;12.840;2023-04-06T13:47:03;16.80;58.30
7461;DHT22;6757;52.258;12.840;2023-04-06T13:49:31;17.20;57.40
7461;DHT22;6757;52.258;12.840;2023-04-06T13:51:58;17.60;56.90
7461;DHT22;6757;52.258;12.840;2023-04-06T13:54:26;17.90;55.50
7461;DHT22;6757;52.258;12.840;2023-04-06T13:56:53;18.20;55.70
7461;DHT22;6757;52.258;12.840;2023-04-06T13:59:20;18.60;55.40
7461;DHT22;6757;52.258;12.840;2023-04-06T14:01:47;19.00;54.90
7461;DHT22;6757;52.258;12.840;2023-04-06T14:04:15;19.30;54.10
7461;DHT22;6757;52.258;12.840;2023-04-06T14:06:44;19.50;53.50
7461;DHT22;6757;52.258;12.840;2023-04-06T14:09:11;19.50;53.20
7461;DHT22;6757;52.258;12.840;2023-04-06T14:11:38;19.70;53.20
7461;DHT22;6757;52.258;12.840;2023-04-06T14:14:05;19.50;52.60
7461;DHT22;6757;52.258;12.840;2023-04-06T14:16:32;19.40;53.20
7461;DHT22;6757;52.258;12.840;2023-04-06T14:18:59;19.20;51.90
7461;DHT22;6757;52.258;12.840;2023-04-06T14:21:27;19.30;51.90
7461;DHT22;6757;52.258;12.840;2023-04-06T14:23:54;19.40;51.50
7461;DHT22;6757;52.258;12.840;2023-04-06T14:26:22;19.60;51.20
7461;DHT22;6757;52.258;12.840;2023-04-06T14:28:49;19.80;50.90
7461;DHT22;6757;52.258;12.840;2023-04-06T14:31:17;20.20;50.90
7461;DHT22;6757;52.258;12.840;2023-04-06T14:33:44;20.60;50.70
7461;DHT22;6757;52.258;12.840;2023-04-06T14:36:11;21.10;50.10
7461;DHT22;6757;52.258;12.840;2023-04-06T14:38:39;21.50;48.60
7461;DHT22;6757;52.258;12.840;2023-04-06T14:41:08;21.60;46.90
7461;DHT22;6757;52.258;12.840;2023-04-06T14:43:41;21.60;46.60
7461;DHT22;6757;52.258;12.840;2023-04-06T14:46:08;21.50;45.60
7461;DHT22;6757;52.258;12.840;2023-04-06T14:48:35;21.20;45.20
7461;DHT22;6757;52.258;12.840;2023-04-06T14:51:02;21.00;45.80
7461;DHT22;6757;52.258;12.840;2023-04-06T14:53:29;21.00;46.20
7461;DHT22;6757;52.258;12.840;2023-04-06T14:55:57;21.20;46.50
7461;DHT22;6757;52.258;12.840;2023-04-06T14:58:25;21.50;46.60
7461;DHT22;6757;52.258;12.840;2023-04-06T15:00:55;21.70;46.30
7461;DHT22;6757;52.258;12.840;2023-04-06T15:03:23;21.60;45.30
7461;DHT22;6757;52.258;12.840;2023-04-06T15:05:50;21.50;45.00
7461;DHT22;6757;52.258;12.840;2023-04-06T15:08:17;21.40;45.40
7461;DHT22;6757;52.258;12.840;2023-04-06T15:10:45;21.30;45.00
7461;DHT22;6757;52.258;12.840;2023-04-06T15:13:14;21.10;43.80
7461;DHT22;6757;52.258;12.840;2023-04-06T15:15:41;20.90;43.80
7461;DHT22;6757;52.258;12.840;2023-04-06T15:18:08;20.50;43.20
7461;DHT22;6757;52.258;12.840;2023-04-06T15:20:35;20.40;42.90
7461;DHT22;6757;52.258;12.840;2023-04-06T15:23:02;20.20;43.10
7461;DHT22;6757;52.258;12.840;2023-04-06T15:25:30;20.10;43.20
7461;DHT22;6757;52.258;12.840;2023-04-06T15:27:57;20.00;43.60
7461;DHT22;6757;52.258;12.840;2023-04-06T15:30:26;20.00;44.00
7461;DHT22;6757;52.258;12.840;2023-04-06T15:32:55;20.00;44.30
7461;DHT22;6757;52.258;12.840;2023-04-06T15:35:23;20.10;44.60
7461;DHT22;6757;52.258;12.840;2023-04-06T15:37:50;20.30;45.00
7461;DHT22;6757;52.258;12.840;2023-04-06T15:40:19;20.40;45.10
7461;DHT22;6757;52.258;12.840;2023-04-06T15:42:45;20.50;45.10
7461;DHT22;6757;52.258;12.840;2023-04-06T15:45:13;20.50;45.20
7461;DHT22;6757;52.258;12.840;2023-04-06T15:47:42;20.60;45.40
7461;DHT22;6757;52.258;12.840;2023-04-06T15:50:10;20.50;44.90
7461;DHT22;6757;52.258;12.840;2023-04-06T15:52:38;20.40;44.20